Time;durP1;ratioP1;P1;durP2;ratioP2;P2;SDS_P1;SDS_P2;PMS_P1;PMS_P2;Temp;Humidity;BMP_temperature;BMP_pressure;BME280_temperature;BME280_humidity;BME280_pressure;Samples;Min_cycle;Max_cycle;Signal;HPM_P1;HPM_P2
2021/01/23 00:00:59;;;;;;;2.95;2.47;;;;;;;8.01;67.10;97215.35;1805557;79;21355;-61
2021/01/23 00:03:26;;;;;;;3.00;2.20;;;;;;;7.96;67.05;97203.67;1805675;79;20964;-60
2021/01/23 00:05:53;;;;;;;4.17;2.60;;;;;;;7.92;67.01;97207.08;1805674;79;21011;-61
2021/01/23 00:08:21;;;;;;;3.58;2.25;;;;;;;7.88;67.25;97215.45;1805783;79;20865;-61
2021/01/23 00:10:49;;;;;;;3.40;2.47;;;;;;;7.85;67.93;97219.70;1805781;79;21354;-62
2021/01/23 00:13:16;;;;;;;2.58;1.95;;;;;;;7.85;68.02;97199.19;1805803;79;20976;-61
2021/01/23 00:15:45;;;;;;;4.17;2.58;;;;;;;7.88;67.98;97221.67;1805805;79;21039;-62
2021/01/23 00:18:12;;;;;;;3.62;2.65;;;;;;;7.91;67.97;97206.70;1805860;79;20901;-62
2021/01/23 00:20:40;;;;;;;3.22;2.92;;;;;;;7.98;67.85;97223.61;1805866;79;20910;-60
2021/01/23 00:23:07;;;;;;;2.87;2.58;;;;;;;8.01;67.82;97218.03;1805751;79;23502;-61
2021/01/23 00:25:35;;;;;;;4.08;2.35;;;;;;;8.04;67.69;97219.13;1805723;79;20964;-61
2021/01/23 00:28:04;;;;;;;2.85;2.55;;;;;;;8.06;67.56;97234.09;1805861;79;20913;-61
2021/01/23 00:30:32;;;;;;;3.70;2.72;;;;;;;8.07;67.40;97230.45;1805807;79;21446;-61
2021/01/23 00:33:00;;;;;;;4.20;2.87;;;;;;;8.10;67.48;97228.02;1805865;79;20925;-61
2021/01/23 00:35:27;;;;;;;3.05;2.47;;;;;;;8.11;67.39;97221.20;1805851;79;21352;-61
2021/01/23 00:37:56;;;;;;;3.72;2.90;;;;;;;8.12;67.52;97222.08;1805716;79;20988;-62
2021/01/23 00:40:24;;;;;;;5.22;2.75;;;;;;;8.09;67.51;97213.80;1805808;79;21027;-62
2021/01/23 00:42:51;;;;;;;4.35;2.80;;;;;;;8.09;67.34;97214.30;1805745;79;20920;-61
2021/01/23 00:45:20;;;;;;;4.78;3.15;;;;;;;8.06;67.36;97208.69;1805804;79;20909;-62
2021/01/23 00:47:47;;;;;;;2.65;2.37;;;;;;;8.04;67.50;97213.31;1805843;78;21254;-61
2021/01/23 00:50:15;;;;;;;5.22;2.65;;;;;;;8.04;67.64;97208.43;1805734;79;20995;-62
2021/01/23 00:52:43;;;;;;;5.00;3.22;;;;;;;8.04;67.67;97203.08;1805837;79;21011;-60
2021/01/23 00:55:12;;;;;;;5.28;4.20;;;;;;;8.04;67.69;97205.75;1805802;79;20913;-60
2021/01/23 00:57:40;;;;;;;4.67;3.15;;;;;;;8.04;67.69;97207.09;1805909;79;21335;-61
2021/01/23 01:00:11;;;;;;;4.80;2.75;;;;;;;8.05;67.53;97216.33;1794655;79;22279;-61
2021/01/23 01:02:40;;;;;;;5.00;2.87;;;;;;;8.04;67.52;97209.77;1805806;79;20882;-61
2021/01/23 01:05:11;;;;;;;4.45;2.92;;;;;;;8.01;67.50;97205.53;1805813;79;20932;-61
2021/01/23 01:07:39;;;;;;;6.53;2.72;;;;;;;7.99;67.51;97203.94;1805823;79;20909;-61
2021/01/23 01:10:08;;;;;;;5.03;2.87;;;;;;;7.94;67.74;97213.16;1805806;79;20925;-61
2021/01/23 01:12:36;;;;;;;3.50;2.52;;;;;;;7.90;67.88;97213.05;1805928;79;22240;-61
2021/01/23 01:15:05;;;;;;;3.45;2.70;;;;;;;7.89;68.02;97209.99;1805650;79;21015;-61
2021/01/23 01:17:33;;;;;;;3.00;2.65;;;;;;;7.89;67.97;97212.66;1805774;79;21351;-61
2021/01/23 01:20:01;;;;;;;4.28;3.12;;;;;;;7.89;67.85;97214.00;1805767;79;21352;-61
2021/01/23 01:22:30;;;;;;;4.58;3.20;;;;;;;7.87;67.80;97211.95;1805801;79;20952;-61
2021/01/23 01:24:58;;;;;;;4.47;2.83;;;;;;;7.86;67.77;97203.55;1805814;79;21198;-61
2021/01/23 01:27:25;;;;;;;20.60;11.03;;;;;;;7.82;67.67;97211.45;1805667;79;20964;-61
2021/01/23 01:29:53;;;;;;;70.67;25.92;;;;;;;7.76;67.59;97205.24;1805758;79;21024;-62
2021/01/23 01:32:21;;;;;;;100.00;34.30;;;;;;;7.68;67.50;97212.97;1805834;79;21347;-61
2021/01/23 01:34:49;;;;;;;113.83;39.27;;;;;;;7.58;67.57;97205.69;1805794;79;20921;-61
2021/01/23 01:37:17;;;;;;;54.58;19.00;;;;;;;7.47;67.77;97201.62;1805789;79;21190;-61
2021/01/23 01:39:45;;;;;;;21.62;11.03;;;;;;;7.36;67.96;97199.79;1805643;79;21421;-60
2021/01/23 01:42:12;;;;;;;11.83;7.35;;;;;;;7.26;68.16;97196.58;1805678;79;20903;-60
2021/01/23 01:44:41;;;;;;;15.25;11.33;;;;;;;7.14;68.34;97191.20;1805765;79;20921;-60
2021/01/23 01:47:08;;;;;;;31.42;20.97;;;;;;;7.04;68.51;97187.50;1805734;78;20920;-61
2021/01/23 01:49:36;;;;;;;21.68;15.75;;;;;;;6.95;68.75;97181.50;1805839;79;22569;-61
2021/01/23 01:52:04;;;;;;;21.35;16.42;;;;;;;6.83;68.97;97178.78;1805800;79;21466;-62
2021/01/23 01:54:32;;;;;;;23.67;15.48;;;;;;;6.72;69.21;97189.40;1805759;79;20912;-61
2021/01/23 01:57:00;;;;;;;21.52;14.55;;;;;;;6.63;69.45;97187.39;1805663;79;22166;-61
2021/01/23 01:59:28;;;;;;;22.37;13.80;;;;;;;6.54;69.91;97191.56;1805768;79;20964;-60
2021/01/23 02:02:04;;;;;;;90.67;33.30;;;;;;;6.46;70.06;97192.12;1805746;79;21120;-60
2021/01/23 02:04:46;;;;;;;89.52;34.95;;;;;;;6.40;70.19;97179.25;1805064;79;20940;-61
2021/01/23 02:07:28;;;;;;;85.90;34.85;;;;;;;6.31;70.35;97183.42;1795894;79;21020;-62
2021/01/23 02:10:22;;;;;;;107.07;43.55;;;;;;;6.25;70.66;97185.67;1781681;79;20960;-61
2021/01/23 02:13:29;;;;;;;84.47;37.45;;;;;;;6.17;71.20;97184.05;1842264;78;23032;-60
2021/01/23 02:16:17;;;;;;;69.35;31.42;;;;;;;6.05;71.40;97185.26;1817650;79;21299;-60
2021/01/23 02:19:11;;;;;;;67.92;31.50;;;;;;;5.95;71.56;97184.19;1817611;78;21807;-61
2021/01/23 02:22:03;;;;;;;;;;;;;;;5.87;71.59;97174.55;1781594;79;21031;-63
2021/01/23 02:24:31;;;;;;;36.60;21.17;;;;;;;5.78;71.76;97178.20;1817638;79;20109;-61
2021/01/23 02:27:30;;;;;;;28.40;18.75;;;;;;;5.68;71.81;97178.48;1817510;79;20968;-60
2021/01/23 02:30:27;;;;;;;24.92;16.60;;;;;;;5.59;72.06;97180.45;1816945;79;20916;-61
2021/01/23 02:32:57;;;;;;;22.02;13.65;;;;;;;5.51;72.38;97189.44;1817565;78;21346;-60
2021/01/23 02:35:25;;;;;;;23.70;14.47;;;;;;;5.40;72.92;97189.68;1817546;79;20928;-60
2021/01/23 02:37:52;;;;;;;14.73;11.08;;;;;;;5.33;72.85;97188.41;1817684;79;20987;-61
2021/01/23 02:40:22;;;;;;;17.17;12.25;;;;;;;5.24;73.11;97185.03;1817414;79;20964;-61
2021/01/23 02:42:50;;;;;;;11.45;8.48;;;;;;;5.18;73.37;97178.78;1784097;79;20979;-61
2021/01/23 02:45:17;;;;;;;14.35;10.30;;;;;;;5.12;73.45;97195.16;1817630;79;22638;-61
2021/01/23 02:47:46;;;;;;;10.23;8.70;;;;;;;5.07;73.46;97186.15;1817522;79;20940;-61
2021/01/23 02:50:15;;;;;;;11.28;8.10;;;;;;;5.00;73.49;97188.37;1817534;79;20919;-61
2021/01/23 02:53:06;;;;;;;9.80;8.60;;;;;;;4.94;73.53;97194.09;1817445;79;21003;-61
2021/01/23 02:55:34;;;;;;;12.05;8.75;;;;;;;4.86;73.64;97190.61;1817554;79;20928;-61
2021/01/23 02:58:04;;;;;;;10.53;8.08;;;;;;;4.78;73.65;97188.93;1817599;79;21200;-61
2021/01/23 03:00:31;;;;;;;10.70;7.65;;;;;;;4.70;73.71;97188.09;1817559;79;21531;-61
2021/01/23 03:03:01;;;;;;;11.68;8.43;;;;;;;4.63;73.91;97185.45;1817595;79;20972;-61
2021/01/23 03:05:33;;;;;;;9.68;7.95;;;;;;;4.58;74.48;97190.70;1817457;79;20896;-61
2021/01/23 03:08:01;;;;;;;10.32;7.50;;;;;;;4.53;74.88;97183.02;1817624;79;20968;-60
2021/01/23 03:10:36;;;;;;;8.30;6.10;;;;;;;4.49;75.11;97185.03;1817457;79;21416;-61
2021/01/23 03:13:04;;;;;;;;;;;;;;;4.46;76.93;97175.92;1810033;79;20896;-59
2021/01/23 03:15:33;;;;;;;4.37;3.85;;;;;;;4.47;76.82;97170.95;1806403;79;20129;-59
2021/01/23 03:18:00;;;;;;;4.37;3.37;;;;;;;4.50;76.71;97179.23;1806321;79;20964;-60
2021/01/23 03:20:28;;;;;;;5.33;4.83;;;;;;;4.54;76.73;97182.08;1806425;79;20924;-60
2021/01/23 03:22:56;;;;;;;8.58;6.22;;;;;;;4.56;76.50;97166.87;1806163;79;21360;-60
2021/01/23 03:25:24;;;;;;;9.05;5.72;;;;;;;4.58;76.41;97180.91;1805751;79;20933;-61
2021/01/23 03:27:54;;;;;;;7.37;6.37;;;;;;;4.60;76.62;97180.33;1805899;79;21402;-61
2021/01/23 03:30:21;;;;;;;15.88;12.68;;;;;;;4.61;76.70;97177.20;1805795;79;20987;-61
2021/01/23 03:32:49;;;;;;;11.90;8.08;;;;;;;4.62;76.27;97191.73;1805877;79;20920;-60
2021/01/23 03:35:18;;;;;;;10.48;7.78;;;;;;;4.62;76.67;97183.76;1805815;79;21193;-61
2021/01/23 03:37:45;;;;;;;13.43;7.92;;;;;;;4.64;76.74;97180.52;1805728;79;20936;-61
2021/01/23 03:40:14;;;;;;;9.95;7.83;;;;;;;4.65;76.68;97171.59;1805756;79;20968;-61
2021/01/23 03:42:42;;;;;;;10.90;8.43;;;;;;;4.64;76.38;97177.02;1805603;79;20992;-61
2021/01/23 03:45:11;;;;;;;12.00;8.95;;;;;;;4.64;76.21;97169.03;1805861;79;20972;-61
2021/01/23 03:47:38;;;;;;;12.80;8.63;;;;;;;4.59;76.06;97171.98;1805843;79;21406;-61
2021/01/23 03:50:08;;;;;;;12.03;8.60;;;;;;;4.58;76.38;97172.93;1805734;79;20944;-62
2021/01/23 03:52:36;;;;;;;32.38;17.17;;;;;;;4.52;76.22;97162.69;1805760;79;20916;-62
2021/01/23 03:55:06;;;;;;;21.97;12.78;;;;;;;4.52;76.38;97177.31;1805753;79;20936;-62
2021/01/23 03:57:34;;;;;;;16.48;12.80;;;;;;;4.48;76.86;97172.67;1805893;79;21335;-61
2021/01/23 04:00:07;;;;;;;16.02;12.05;;;;;;;4.47;77.26;97178.94;1805825;79;21199;-61
2021/01/23 04:02:36;;;;;;;19.30;12.65;;;;;;;4.48;77.37;97182.47;1805841;79;20991;-60
2021/01/23 04:05:06;;;;;;;18.20;12.45;;;;;;;4.47;77.37;97180.75;1805755;79;20877;-60
2021/01/23 04:07:33;;;;;;;20.10;13.13;;;;;;;4.48;77.15;97187.79;1805871;79;21535;-61
2021/01/23 04:10:01;;;;;;;13.90;9.93;;;;;;;4.48;77.14;97185.12;1805731;79;21375;-61
2021/01/23 04:12:31;;;;;;;13.93;9.38;;;;;;;4.50;77.14;97179.23;1805746;79;21375;-61
2021/01/23 04:14:59;;;;;;;12.82;10.30;;;;;;;4.49;77.08;97181.05;1805775;79;21034;-62
2021/01/23 04:17:28;;;;;;;9.98;7.67;;;;;;;4.48;76.71;97181.14;1805765;79;20873;-61
2021/01/23 04:19:56;;;;;;;11.65;8.83;;;;;;;4.45;77.01;97187.98;1805743;79;21464;-61
2021/01/23 04:22:23;;;;;;;12.43;7.90;;;;;;;4.44;77.40;97190.25;1805906;79;21379;-61
2021/01/23 04:24:51;;;;;;;7.45;5.92;;;;;;;4.44;78.14;97191.58;1805687;79;21351;-61
2021/01/23 04:27:19;;;;;;;8.15;6.40;;;;;;;4.47;77.95;97198.03;1805667;79;20996;-60
2021/01/23 04:29:47;;;;;;;15.35;7.95;;;;;;;4.50;78.03;97196.52;1805763;79;20916;-60
2021/01/23 04:32:15;;;;;;;7.70;6.80;;;;;;;4.51;77.67;97198.23;1805833;79;20909;-60
2021/01/23 04:34:43;;;;;;;10.25;7.75;;;;;;;4.51;77.39;97194.24;1805744;79;20996;-60
2021/01/23 04:37:13;;;;;;;12.10;8.65;;;;;;;4.49;77.02;97189.02;1805803;79;21332;-61
2021/01/23 04:39:41;;;;;;;8.23;6.53;;;;;;;4.47;76.59;97196.70;1805662;79;20964;-62
2021/01/23 04:42:10;;;;;;;6.97;5.45;;;;;;;4.42;76.59;97198.81;1805778;79;21004;-62
2021/01/23 04:44:37;;;;;;;8.48;6.65;;;;;;;4.38;76.92;97196.80;1805752;79;20929;-60
2021/01/23 04:47:05;;;;;;;8.08;6.78;;;;;;;4.33;77.11;97189.60;1805769;79;20924;-60
2021/01/23 04:49:33;;;;;;;10.70;6.60;;;;;;;4.30;77.01;97185.36;1805723;79;21185;-61
2021/01/23 04:52:03;;;;;;;8.83;6.83;;;;;;;4.27;77.02;97188.20;1805627;79;20965;-61
2021/01/23 04:54:32;;;;;;;8.58;6.58;;;;;;;4.21;76.91;97188.59;1805766;79;20936;-61
2021/01/23 04:57:03;;;;;;;8.18;5.67;;;;;;;4.17;76.56;97195.03;1805720;79;20991;-61
2021/01/23 04:59:31;;;;;;;7.53;5.85;;;;;;;4.10;76.60;97188.38;1805791;79;20933;-60
2021/01/23 05:02:23;;;;;;;6.05;4.95;;;;;;;4.04;76.49;97188.80;1805876;79;22161;-61
2021/01/23 05:05:02;;;;;;;7.87;5.03;;;;;;;3.98;76.56;97182.89;1775075;79;20961;-60
2021/01/23 05:07:40;;;;;;;9.00;6.12;;;;;;;3.91;76.77;97189.55;1805497;79;20920;-60
2021/01/23 05:10:28;;;;;;;14.18;6.20;;;;;;;3.85;76.85;97188.60;1805667;79;20924;-61
2021/01/23 05:12:58;;;;;;;7.80;5.92;;;;;;;3.78;77.25;97189.91;1805806;79;21343;-62
2021/01/23 05:15:32;;;;;;;11.70;7.00;;;;;;;3.74;77.56;97185.75;1805768;79;21371;-61
2021/01/23 05:18:08;;;;;;;13.75;10.25;;;;;;;3.72;77.64;97183.64;1805687;79;20996;-62
2021/01/23 05:20:54;;;;;;;11.63;10.13;;;;;;;3.70;77.95;97176.25;1805676;79;20980;-59
2021/01/23 05:23:24;;;;;;;10.85;9.33;;;;;;;3.71;78.82;97179.30;1805801;79;20968;-60
2021/01/23 05:25:59;;;;;;;15.30;9.70;;;;;;;3.69;79.11;97178.06;1805773;79;21005;-60
2021/01/23 05:28:33;;;;;;;17.30;11.28;;;;;;;3.72;79.45;97179.66;1805799;79;21346;-61
2021/01/23 05:31:02;;;;;;;10.13;7.12;;;;;;;3.74;79.38;97179.95;1805814;79;20984;-62
2021/01/23 05:33:32;;;;;;;16.30;9.68;;;;;;;3.78;79.35;97189.46;1805741;79;21445;-61
2021/01/23 05:36:13;;;;;;;19.10;9.10;;;;;;;3.83;79.72;97186.48;1805802;79;21409;-61
2021/01/23 05:38:43;;;;;;;15.58;9.05;;;;;;;3.88;79.84;97180.44;1805766;79;20964;-61
2021/01/23 05:41:13;;;;;;;16.23;10.88;;;;;;;3.92;79.67;97183.27;1805821;79;22090;-62
2021/01/23 05:44:00;;;;;;;16.05;9.78;;;;;;;3.96;79.09;97180.81;1805708;79;20968;-61
2021/01/23 05:46:30;;;;;;;13.70;9.08;;;;;;;3.97;78.60;97180.33;1805738;79;20917;-61
2021/01/23 05:49:01;;;;;;;11.03;8.28;;;;;;;3.97;78.35;97188.30;1805907;79;21003;-61
2021/01/23 05:51:29;;;;;;;15.63;9.48;;;;;;;3.97;78.14;97201.58;1805836;79;20995;-61
2021/01/23 05:53:56;;;;;;;14.85;9.65;;;;;;;3.93;77.86;97203.59;1805679;79;21185;-61
2021/01/23 05:56:25;;;;;;;13.85;10.35;;;;;;;3.91;77.88;97208.15;1805731;79;20881;-61
2021/01/23 05:58:52;;;;;;;16.10;11.57;;;;;;;3.89;77.87;97207.36;1805710;79;21012;-61
2021/01/23 06:01:21;;;;;;;11.95;7.17;;;;;;;3.89;78.49;97206.52;1805698;79;20968;-60
2021/01/23 06:03:51;;;;;;;9.78;7.17;;;;;;;3.91;78.97;97201.95;1805717;79;21015;-60
2021/01/23 06:06:20;;;;;;;49.53;30.17;;;;;;;3.94;79.11;97194.67;1805693;79;21360;-60
2021/01/23 06:08:50;;;;;;;52.58;32.65;;;;;;;4.01;79.05;97181.02;1805660;79;20889;-60
2021/01/23 06:11:25;;;;;;;68.20;36.00;;;;;;;4.06;79.24;97184.23;1805665;79;21034;-60
2021/01/23 06:13:55;;;;;;;34.20;21.00;;;;;;;4.11;79.54;97175.00;1813408;79;20956;-60
2021/01/23 06:16:36;;;;;;;44.35;25.20;;;;;;;4.20;79.53;97173.58;1814762;79;20951;-61
2021/01/23 06:19:11;;;;;;;33.50;21.37;;;;;;;4.26;79.26;97164.38;1814910;79;21354;-61
2021/01/23 06:21:48;;;;;;;15.25;11.40;;;;;;;4.32;78.76;97171.48;1814884;79;20916;-60
2021/01/23 06:24:17;;;;;;;13.65;10.03;;;;;;;4.40;78.43;97176.77;1814901;79;21343;-61
2021/01/23 06:26:57;;;;;;;11.88;7.60;;;;;;;4.45;78.07;97181.34;1814823;79;21494;-61
2021/01/23 06:29:44;;;;;;;10.55;7.20;;;;;;;4.48;77.79;97181.14;1814834;79;20896;-62
2021/01/23 06:32:22;;;;;;;10.45;7.92;;;;;;;4.52;77.64;97176.86;1814712;79;21181;-60
2021/01/23 06:35:01;;;;;;;11.97;7.55;;;;;;;4.56;77.50;97181.95;1814790;79;20979;-61
2021/01/23 06:37:37;;;;;;;12.03;7.92;;;;;;;4.59;77.35;97174.65;1814703;79;21004;-61
2021/01/23 06:40:18;;;;;;;;;;;;;;;4.64;77.34;97168.55;1817448;79;21049;-60
2021/01/23 06:42:48;;;;;;;11.40;9.85;;;;;;;4.69;77.31;97169.09;1813360;79;20133;-60
2021/01/23 06:45:21;;;;;;;9.43;7.45;;;;;;;4.72;77.42;97169.38;1814786;79;22239;-61
2021/01/23 06:47:57;;;;;;;8.85;7.40;;;;;;;4.77;77.46;97173.91;1815003;79;21003;-61
2021/01/23 06:50:39;;;;;;;8.75;7.25;;;;;;;4.83;77.41;97176.66;1814684;78;20932;-61
2021/01/23 06:53:23;;;;;;;10.88;8.75;;;;;;;4.90;77.29;97184.59;1814743;79;20897;-61
2021/01/23 06:55:54;;;;;;;11.08;8.55;;;;;;;4.96;77.10;97180.20;1786971;79;21039;-62
2021/01/23 06:58:29;;;;;;;13.25;10.03;;;;;;;5.05;76.87;97176.94;1814837;79;21363;-61
2021/01/23 07:00:58;;;;;;;12.07;9.70;;;;;;;5.10;76.65;97177.12;1814906;79;20924;-60
2021/01/23 07:03:28;;;;;;;10.35;7.70;;;;;;;5.16;76.49;97183.37;1815033;79;20924;-61
2021/01/23 07:06:00;;;;;;;16.65;9.05;;;;;;;5.19;76.37;97176.02;1814888;79;20932;-62
2021/01/23 07:08:34;;;;;;;9.78;8.78;;;;;;;5.24;76.20;97174.38;1814994;79;20920;-60
2021/01/23 07:11:18;;;;;;;10.60;8.55;;;;;;;5.28;76.05;97169.20;1814943;79;22230;-61
2021/01/23 07:14:06;;;;;;;13.68;8.90;;;;;;;5.31;75.90;97171.66;1808730;79;20921;-61
2021/01/23 07:16:37;;;;;;;14.45;9.28;;;;;;;5.36;75.72;97166.03;1805819;79;20913;-61
2021/01/23 07:19:07;;;;;;;29.25;17.05;;;;;;;5.41;75.54;97158.60;1805800;79;20901;-61
2021/01/23 07:21:40;;;;;;;59.83;41.18;;;;;;;5.47;75.45;97162.64;1805879;79;21327;-61
2021/01/23 07:24:09;;;;;;;41.35;30.08;;;;;;;5.52;75.38;97163.16;1782136;79;21370;-59
2021/01/23 07:26:37;;;;;;;37.98;26.93;;;;;;;5.58;75.26;97157.42;1805735;79;21311;-61
2021/01/23 07:29:05;;;;;;;34.30;25.00;;;;;;;5.63;75.03;97157.98;1805762;79;20877;-61
2021/01/23 07:31:34;;;;;;;38.00;26.20;;;;;;;5.70;74.82;97156.58;1805779;78;20968;-61
2021/01/23 07:34:11;;;;;;;26.97;17.75;;;;;;;5.75;74.71;97151.77;1805770;79;20964;-62
2021/01/23 07:36:42;;;;;;;28.67;19.37;;;;;;;5.83;74.63;97161.05;1805775;79;21241;-61
2021/01/23 07:39:12;;;;;;;32.78;20.77;;;;;;;5.91;74.46;97158.70;1805712;79;21023;-62
2021/01/23 07:41:50;;;;;;;29.67;18.52;;;;;;;5.97;74.42;97146.30;1805745;79;21008;-63
2021/01/23 07:44:18;;;;;;;22.77;15.40;;;;;;;6.02;74.34;97153.48;1805764;79;20896;-61
2021/01/23 07:46:47;;;;;;;40.23;26.50;;;;;;;6.08;74.34;97153.05;1805822;79;20913;-62
2021/01/23 07:49:26;;;;;;;55.20;33.20;;;;;;;6.15;74.26;97150.83;1805865;79;22111;-61
2021/01/23 07:52:06;;;;;;;50.15;29.23;;;;;;;6.20;74.19;97144.67;1805841;79;21608;-61
2021/01/23 07:54:50;;;;;;;35.63;20.75;;;;;;;6.26;74.11;97147.36;1803263;79;20948;-61
2021/01/23 07:57:18;;;;;;;20.00;14.75;;;;;;;6.33;74.02;97140.64;1805938;79;20862;-61
2021/01/23 07:59:47;;;;;;;17.95;11.35;;;;;;;6.41;73.98;97142.76;1805802;79;20929;-62
2021/01/23 08:02:16;;;;;;;21.10;13.50;;;;;;;6.48;73.85;97139.53;1805835;79;22251;-64
2021/01/23 08:04:58;;;;;;;15.53;11.28;;;;;;;6.55;73.75;97132.42;1805694;79;20893;-63
2021/01/23 08:07:31;;;;;;;15.40;11.00;;;;;;;6.61;73.57;97130.64;1805172;79;21019;-61
2021/01/23 08:10:20;;;;;;;7.25;5.92;;;;;;;6.67;73.34;97124.85;1805686;79;20968;-62
2021/01/23 08:12:59;;;;;;;6.40;4.33;;;;;;;6.74;73.10;97119.41;1806878;79;21104;-62
2021/01/23 08:15:29;;;;;;;7.28;4.97;;;;;;;6.82;72.73;97113.02;1814988;79;22263;-61
2021/01/23 08:17:58;;;;;;;6.00;4.08;;;;;;;6.92;72.64;97115.00;1814897;79;21315;-61
2021/01/23 08:20:38;;;;;;;7.20;4.50;;;;;;;7.00;72.48;97107.25;1814937;79;20909;-61
2021/01/23 08:23:16;;;;;;;6.53;3.87;;;;;;;7.09;72.30;97114.58;1814850;79;20968;-62
2021/01/23 08:25:49;;;;;;;5.53;3.83;;;;;;;7.16;72.07;97118.50;1814932;79;20956;-63
2021/01/23 08:28:30;;;;;;;5.07;3.33;;;;;;;7.22;71.87;97110.48;1815161;79;21325;-62
2021/01/23 08:31:19;;;;;;;5.22;3.70;;;;;;;7.28;71.43;97105.17;1814423;79;20905;-62
2021/01/23 08:33:55;;;;;;;8.30;4.70;;;;;;;7.34;71.14;97106.88;1814879;79;20997;-61
2021/01/23 08:36:29;;;;;;;6.95;4.97;;;;;;;7.41;70.74;97108.61;1814901;79;20924;-61
2021/01/23 08:39:05;;;;;;;9.00;5.03;;;;;;;7.47;70.53;97102.77;1814984;79;21445;-61
2021/01/23 08:41:34;;;;;;;5.95;4.47;;;;;;;7.52;70.21;97103.75;1815015;79;22190;-61
2021/01/23 08:44:05;;;;;;;11.38;6.45;;;;;;;7.58;69.95;97100.14;1814842;79;20979;-61
2021/01/23 08:46:32;;;;;;;6.15;4.50;;;;;;;7.65;69.57;97109.02;1814855;79;21007;-63
2021/01/23 08:49:00;;;;;;;8.00;4.35;;;;;;;7.70;69.54;97108.16;1814753;78;21369;-63
2021/01/23 08:51:28;;;;;;;5.17;3.87;;;;;;;7.73;69.34;97103.91;1814820;79;20912;-61
2021/01/23 08:53:57;;;;;;;5.78;4.08;;;;;;;7.79;69.16;97104.77;1814846;79;21193;-61
2021/01/23 08:56:24;;;;;;;6.37;4.17;;;;;;;7.84;68.93;97107.92;1814813;79;20999;-62
2021/01/23 08:58:52;;;;;;;6.80;4.17;;;;;;;7.88;68.78;97105.84;1814924;79;21462;-62
2021/01/23 09:01:20;;;;;;;8.25;5.90;;;;;;;7.91;68.48;97107.78;1814813;79;21019;-61
2021/01/23 09:03:48;;;;;;;7.00;5.17;;;;;;;7.95;68.27;97111.92;1814915;79;20904;-61
2021/01/23 09:06:17;;;;;;;9.33;3.87;;;;;;;8.01;68.16;97116.42;1814864;79;21197;-61
2021/01/23 09:08:46;;;;;;;6.42;3.58;;;;;;;8.02;67.86;97112.78;1814828;79;20939;-62
2021/01/23 09:11:16;;;;;;;4.62;3.45;;;;;;;8.06;67.72;97106.23;1814897;79;20893;-61
2021/01/23 09:13:44;;;;;;;6.15;3.77;;;;;;;8.09;67.58;97110.00;1819888;78;20987;-61
2021/01/23 09:16:11;;;;;;;8.55;4.03;;;;;;;8.12;67.55;97107.08;1828722;78;20975;-61
2021/01/23 09:18:38;;;;;;;5.75;4.47;;;;;;;8.14;67.52;97109.13;1828766;78;22102;-61
2021/01/23 09:21:08;;;;;;;5.90;3.55;;;;;;;8.18;67.43;97107.05;1828616;78;20928;-61
2021/01/23 09:23:36;;;;;;;8.60;4.40;;;;;;;8.21;67.40;97106.81;1828696;78;20928;-61
2021/01/23 09:26:04;;;;;;;9.40;5.80;;;;;;;8.22;67.27;97108.02;1828664;78;20959;-62
2021/01/23 09:28:32;;;;;;;7.35;5.17;;;;;;;8.24;67.34;97106.06;1828723;78;20999;-61
2021/01/23 09:31:00;;;;;;;7.75;5.83;;;;;;;8.25;67.25;97106.44;1828686;78;21358;-63
2021/01/23 09:33:27;;;;;;;11.43;8.75;;;;;;;8.28;67.11;97111.55;1828616;78;20931;-61
2021/01/23 09:35:55;;;;;;;35.48;22.10;;;;;;;8.30;66.93;97105.58;1828658;78;20908;-61
2021/01/23 09:38:22;;;;;;;26.48;15.20;;;;;;;8.32;66.85;97110.34;1828664;78;20965;-60
2021/01/23 09:40:50;;;;;;;15.32;8.55;;;;;;;8.36;66.61;97107.41;1828703;78;21027;-62
2021/01/23 09:43:18;;;;;;;13.62;8.53;;;;;;;8.38;66.61;97102.78;1828720;78;21373;-61
2021/01/23 09:45:45;;;;;;;30.68;14.87;;;;;;;8.41;66.59;97109.22;1828637;78;20924;-60
2021/01/23 09:48:13;;;;;;;29.55;16.65;;;;;;;8.44;66.51;97113.02;1828714;78;20991;-60
2021/01/23 09:50:43;;;;;;;19.45;11.60;;;;;;;8.45;66.42;97108.88;1828599;78;21006;-61
2021/01/23 09:53:10;;;;;;;17.70;9.85;;;;;;;8.49;66.25;97113.48;1828691;78;21464;-62
2021/01/23 09:55:37;;;;;;;10.88;5.75;;;;;;;8.50;66.25;97107.17;1828685;78;21372;-62
2021/01/23 09:58:06;;;;;;;8.65;4.35;;;;;;;8.52;66.00;97111.90;1828640;78;20928;-62
2021/01/23 10:00:33;;;;;;;6.17;5.40;;;;;;;8.53;66.17;97108.26;1828616;78;20999;-61
2021/01/23 10:03:00;;;;;;;7.08;4.60;;;;;;;8.54;66.00;97099.73;1828666;78;21007;-62
2021/01/23 10:05:30;;;;;;;6.95;5.03;;;;;;;8.55;65.95;97101.45;1828665;78;21049;-60
2021/01/23 10:07:57;;;;;;;7.12;5.83;;;;;;;8.55;65.98;97099.61;1828672;78;21350;-61
2021/01/23 10:10:25;;;;;;;8.33;5.33;;;;;;;8.55;65.98;97099.61;1828586;78;20880;-62
2021/01/23 10:12:54;;;;;;;9.13;6.62;;;;;;;8.55;66.05;97092.08;1828659;78;20998;-62
2021/01/23 10:15:24;;;;;;;9.25;5.95;;;;;;;8.56;66.13;97090.61;1807058;78;20924;-61
2021/01/23 10:17:53;;;;;;;7.62;6.62;;;;;;;8.57;66.17;97081.59;1805702;79;20992;-61
2021/01/23 10:20:21;;;;;;;12.78;7.53;;;;;;;8.56;66.12;97085.27;1805661;79;21412;-61
2021/01/23 10:22:48;;;;;;;10.65;9.48;;;;;;;8.58;66.02;97077.11;1805676;79;20921;-62
2021/01/23 10:25:18;;;;;;;14.28;11.25;;;;;;;8.58;66.01;97080.63;1805707;79;20917;-61
2021/01/23 10:27:47;;;;;;;14.87;12.25;;;;;;;8.58;65.96;97072.59;1805688;79;21323;-62
2021/01/23 10:30:16;;;;;;;13.83;11.03;;;;;;;8.58;65.96;97075.77;1805754;79;20905;-61
2021/01/23 10:32:43;;;;;;;13.50;12.07;;;;;;;8.57;65.96;97073.56;1805791;79;22213;-62
2021/01/23 10:35:13;;;;;;;14.65;10.05;;;;;;;8.57;66.06;97068.20;1805802;79;20984;-61
2021/01/23 10:37:41;;;;;;;15.48;11.70;;;;;;;8.56;66.02;97069.20;1805848;79;21580;-62
2021/01/23 10:40:11;;;;;;;25.15;22.40;;;;;;;8.55;66.03;97063.48;1805767;79;20909;-62
2021/01/23 10:42:39;;;;;;;22.70;16.17;;;;;;;8.55;66.07;97064.81;1805909;79;20917;-61
2021/01/23 10:45:08;;;;;;;19.10;14.75;;;;;;;8.56;66.04;97054.95;1805879;79;21334;-61
2021/01/23 10:47:36;;;;;;;12.80;11.45;;;;;;;8.57;66.15;97052.15;1805878;79;20893;-62
2021/01/23 10:50:06;;;;;;;13.18;11.75;;;;;;;8.58;66.14;97052.52;1805863;79;21406;-62
2021/01/23 10:52:34;;;;;;;11.30;10.20;;;;;;;8.60;66.15;97046.55;1805782;79;21031;-62
2021/01/23 10:55:05;;;;;;;13.70;11.25;;;;;;;8.61;65.91;97041.56;1805846;79;21418;-61
2021/01/23 10:57:35;;;;;;;12.82;11.33;;;;;;;8.63;65.92;97036.92;1805974;79;22270;-62
2021/01/23 11:00:06;;;;;;;12.80;10.60;;;;;;;8.67;65.88;97039.72;1805862;79;20964;-62
2021/01/23 11:02:39;;;;;;;15.88;9.75;;;;;;;8.70;65.78;97035.08;1805824;79;20926;-61
2021/01/23 11:05:10;;;;;;;15.23;13.53;;;;;;;8.72;65.69;97025.95;1805841;79;20908;-61
2021/01/23 11:07:39;;;;;;;13.70;11.30;;;;;;;8.75;65.68;97032.86;1803012;79;20924;-61
2021/01/23 11:10:11;;;;;;;12.47;11.15;;;;;;;8.77;65.67;97026.91;1805736;79;20896;-61
2021/01/23 11:12:39;;;;;;;18.20;13.05;;;;;;;8.79;65.70;97016.91;1805784;79;20940;-61
2021/01/23 11:15:09;;;;;;;17.55;12.75;;;;;;;8.79;65.56;97020.92;1805767;79;20905;-63
2021/01/23 11:17:38;;;;;;;14.65;12.70;;;;;;;8.82;65.38;97024.69;1805914;79;20924;-62
2021/01/23 11:20:09;;;;;;;15.15;11.73;;;;;;;8.84;65.35;97019.57;1805809;79;20940;-62
2021/01/23 11:22:36;;;;;;;9.58;8.53;;;;;;;8.86;65.17;97020.28;1805953;79;22242;-63
2021/01/23 11:25:05;;;;;;;9.90;8.15;;;;;;;8.88;65.29;97021.48;1805736;79;20980;-62
2021/01/23 11:27:33;;;;;;;9.93;7.90;;;;;;;8.89;65.45;97020.98;1805917;79;20996;-61
2021/01/23 11:30:01;;;;;;;8.78;7.22;;;;;;;8.90;65.50;97011.48;1805767;79;20959;-62
2021/01/23 11:32:29;;;;;;;8.60;7.40;;;;;;;8.89;65.42;97012.95;1805875;79;20877;-61
2021/01/23 11:34:59;;;;;;;7.75;6.65;;;;;;;8.88;65.48;97008.10;1805823;79;21370;-60
2021/01/23 11:37:27;;;;;;;9.35;6.58;;;;;;;8.89;65.59;97006.27;1805728;79;20969;-62
2021/01/23 11:39:54;;;;;;;8.33;6.90;;;;;;;8.87;65.71;97010.41;1805778;79;20964;-60
2021/01/23 11:42:22;;;;;;;12.55;6.85;;;;;;;8.88;65.70;97004.09;1805803;79;20999;-62
2021/01/23 11:44:50;;;;;;;9.38;7.08;;;;;;;8.88;65.77;97004.09;1805811;79;21023;-61
2021/01/23 11:47:17;;;;;;;10.15;8.30;;;;;;;8.89;65.78;96999.07;1805882;79;21359;-61
2021/01/23 11:49:46;;;;;;;13.18;10.38;;;;;;;8.92;65.85;96997.47;1805684;79;20982;-61
2021/01/23 11:52:13;;;;;;;16.57;11.75;;;;;;;8.95;65.65;96993.70;1805831;79;20999;-62